Time;durP1;ratioP1;P1;durP2;ratioP2;P2;SDS_P1;SDS_P2;PMS_P1;PMS_P2;Temp;Humidity;BMP_temperature;BMP_pressure;BME280_temperature;BME280_humidity;BME280_pressure;Samples;Min_cycle;Max_cycle;Signal;HPM_P1;HPM_P2
2023/04/17 00:00:36;;;;;;;3.38;2.17;;;;;;;;;;5114856;28;20020;-63
2023/04/17 00:03:03;;;;;;;4.85;2.15;;;;;;;;;;5114879;28;20020;-61
2023/04/17 00:05:30;;;;;;;6.72;3.38;;;;;;;;;;5114714;28;20137;-60
2023/04/17 00:07:58;;;;;;;4.35;2.17;;;;;;;;;;5114535;28;20087;-61
2023/04/17 00:10:25;;;;;;;17.83;2.33;;;;;;;;;;5111836;28;20024;-61
2023/04/17 00:12:52;;;;;;;4.88;2.22;;;;;;;;;;5109293;28;20016;-61
2023/04/17 00:15:18;;;;;;;13.75;2.53;;;;;;;;;;5091255;28;20023;-61
2023/04/17 00:17:45;;;;;;;4.78;1.92;;;;;;;;;;5109442;28;20034;-61
2023/04/17 00:20:12;;;;;;;4.45;2.05;;;;;;;;;;5111631;28;20493;-61
2023/04/17 00:22:39;;;;;;;2.35;1.52;;;;;;;;;;5114501;28;20110;-61
2023/04/17 00:25:06;;;;;;;3.47;1.27;;;;;;;;;;5114335;28;20027;-61
2023/04/17 00:27:32;;;;;;;7.45;2.58;;;;;;;;;;5114364;28;20028;-61
2023/04/17 00:30:00;;;;;;;3.50;2.03;;;;;;;;;;5113368;28;20062;-61
2023/04/17 00:32:27;;;;;;;7.43;2.28;;;;;;;;;;5111742;28;20076;-62
2023/04/17 00:34:54;;;;;;;3.40;1.80;;;;;;;;;;5109362;28;20038;-61
2023/04/17 00:37:20;;;;;;;3.25;2.20;;;;;;;;;;5109086;28;20028;-61
2023/04/17 00:39:47;;;;;;;7.95;2.42;;;;;;;;;;5109206;28;20027;-62
2023/04/17 00:42:14;;;;;;;6.15;2.90;;;;;;;;;;5110344;28;20044;-61
2023/04/17 00:44:40;;;;;;;4.82;2.83;;;;;;;;;;5095711;28;20023;-61
2023/04/17 00:47:07;;;;;;;4.22;2.97;;;;;;;;;;5113886;28;20035;-61
2023/04/17 00:49:34;;;;;;;5.75;3.05;;;;;;;;;;5113776;28;20024;-61
2023/04/17 00:52:00;;;;;;;5.40;3.42;;;;;;;;;;5113889;28;20019;-61
2023/04/17 00:54:27;;;;;;;14.48;3.78;;;;;;;;;;5112387;28;20078;-61
2023/04/17 00:56:56;;;;;;;17.92;5.65;;;;;;;;;;5108605;28;20023;-60
2023/04/17 00:59:23;;;;;;;5.85;3.78;;;;;;;;;;5108374;28;20031;-61
2023/04/17 01:01:50;;;;;;;7.90;4.07;;;;;;;;;;5108575;28;20019;-62
2023/04/17 01:04:16;;;;;;;8.20;4.90;;;;;;;;;;5109430;28;20282;-61
2023/04/17 01:06:43;;;;;;;6.50;3.47;;;;;;;;;;5113491;28;20101;-61
2023/04/17 01:09:11;;;;;;;6.87;4.30;;;;;;;;;;5113331;28;20344;-61
2023/04/17 01:11:38;;;;;;;4.67;3.07;;;;;;;;;;5113825;28;20369;-61
2023/04/17 01:14:05;;;;;;;4.13;2.90;;;;;;;;;;5113525;28;20038;-61
2023/04/17 01:16:32;;;;;;;4.93;2.93;;;;;;;;;;5112585;28;20110;-61
2023/04/17 01:18:59;;;;;;;4.73;3.27;;;;;;;;;;5108271;28;20068;-61
2023/04/17 01:21:26;;;;;;;4.93;3.47;;;;;;;;;;5108254;28;20381;-61
2023/04/17 01:23:53;;;;;;;5.57;3.37;;;;;;;;;;5108183;28;20031;-61
2023/04/17 01:26:23;;;;;;;6.30;4.13;;;;;;;;;;5107726;28;20067;-61
2023/04/17 01:28:53;;;;;;;5.30;3.43;;;;;;;;;;5095404;28;20020;-61
2023/04/17 01:31:20;;;;;;;7.83;3.97;;;;;;;;;;5113126;28;20023;-61
2023/04/17 01:33:47;;;;;;;5.33;3.10;;;;;;;;;;5112885;28;20023;-62
2023/04/17 01:36:13;;;;;;;5.77;3.27;;;;;;;;;;5094913;28;20051;-61
2023/04/17 01:38:40;;;;;;;15.23;4.53;;;;;;;;;;5112932;28;20020;-61
2023/04/17 01:41:10;;;;;;;5.43;3.60;;;;;;;;;;5107849;28;20381;-61
2023/04/17 01:43:43;;;;;;;5.23;3.43;;;;;;;;;;5107647;28;20027;-62
2023/04/17 01:46:10;;;;;;;8.90;5.07;;;;;;;;;;5108056;28;20118;-61
2023/04/17 01:48:37;;;;;;;5.53;3.17;;;;;;;;;;5107740;28;20077;-63
2023/04/17 01:51:03;;;;;;;8.50;4.80;;;;;;;;;;5094505;28;20099;-61
2023/04/17 01:53:31;;;;;;;9.43;4.23;;;;;;;;;;5113004;28;20020;-62
2023/04/17 01:55:59;;;;;;;7.70;3.90;;;;;;;;;;5112830;28;20379;-61
2023/04/17 01:58:25;;;;;;;7.07;4.20;;;;;;;;;;5112570;28;20070;-62
2023/04/17 02:00:52;;;;;;;4.40;3.40;;;;;;;;;;5112909;28;20080;-61
2023/04/17 02:03:19;;;;;;;4.77;3.53;;;;;;;;;;5107702;28;20034;-61
2023/04/17 02:05:46;;;;;;;3.97;2.97;;;;;;;;;;5107625;28;20051;-62
2023/04/17 02:08:15;;;;;;;8.80;4.00;;;;;;;;;;5107662;28;20072;-62
2023/04/17 02:10:42;;;;;;;4.77;3.53;;;;;;;;;;5107780;28;20102;-63
2023/04/17 02:13:10;;;;;;;4.73;3.47;;;;;;;;;;5112084;28;20477;-62
2023/04/17 02:15:37;;;;;;;7.30;4.13;;;;;;;;;;5112696;28;20065;-61
2023/04/17 02:18:07;;;;;;;4.43;3.60;;;;;;;;;;5112821;28;20042;-60
2023/04/17 02:20:34;;;;;;;8.43;4.10;;;;;;;;;;5112924;28;20049;-62
2023/04/17 02:23:01;;;;;;;6.23;4.50;;;;;;;;;;5112462;28;20043;-61
2023/04/17 02:25:28;;;;;;;6.73;4.23;;;;;;;;;;5107855;28;20028;-60
2023/04/17 02:27:55;;;;;;;6.57;4.70;;;;;;;;;;5107378;28;20481;-60
2023/04/17 02:30:22;;;;;;;9.40;4.60;;;;;;;;;;5107396;28;20080;-60
2023/04/17 02:32:50;;;;;;;6.50;4.80;;;;;;;;;;5107455;28;20023;-60
2023/04/17 02:35:18;;;;;;;7.23;5.10;;;;;;;;;;5111496;28;20020;-61
2023/04/17 02:37:44;;;;;;;13.80;5.87;;;;;;;;;;5112695;28;20070;-60
2023/04/17 02:40:11;;;;;;;6.83;4.90;;;;;;;;;;5112521;28;20474;-61
2023/04/17 02:42:38;;;;;;;8.33;4.90;;;;;;;;;;5112581;28;20090;-60
2023/04/17 02:45:05;;;;;;;7.67;5.33;;;;;;;;;;5112397;28;20040;-61
2023/04/17 02:47:31;;;;;;;13.73;5.70;;;;;;;;;;5108368;28;20024;-60
2023/04/17 02:50:01;;;;;;;7.17;5.17;;;;;;;;;;5107277;28;20024;-61
2023/04/17 02:52:30;;;;;;;7.50;4.77;;;;;;;;;;5108581;28;20103;-61
2023/04/17 02:54:57;;;;;;;4.97;3.83;;;;;;;;;;5111142;28;20027;-60
2023/04/17 02:57:24;;;;;;;4.47;3.20;;;;;;;;;;5114158;28;20078;-61
2023/04/17 02:59:51;;;;;;;7.33;3.70;;;;;;;;;;5116119;28;20016;-60
2023/04/17 03:02:20;;;;;;;6.97;3.27;;;;;;;;;;5116107;28;20015;-60
2023/04/17 03:04:50;;;;;;;4.87;2.80;;;;;;;;;;5116187;28;20541;-60
2023/04/17 03:07:18;;;;;;;3.50;2.80;;;;;;;;;;5115672;28;20032;-60
2023/04/17 03:09:48;;;;;;;4.70;4.07;;;;;;;;;;5112194;28;20069;-61
2023/04/17 03:12:15;;;;;;;5.47;4.33;;;;;;;;;;5110950;28;20542;-60
2023/04/17 03:14:42;;;;;;;7.03;4.83;;;;;;;;;;5110951;28;20396;-60
2023/04/17 03:17:09;;;;;;;3.40;2.57;;;;;;;;;;5110716;28;20095;-60
2023/04/17 03:19:35;;;;;;;2.13;1.40;;;;;;;;;;5095138;28;20039;-60
2023/04/17 03:22:03;;;;;;;4.17;1.97;;;;;;;;;;5115728;28;20023;-60
2023/04/17 03:24:30;;;;;;;6.00;4.30;;;;;;;;;;5115378;28;20050;-61
2023/04/17 03:26:57;;;;;;;7.00;4.27;;;;;;;;;;5115829;28;20028;-60
2023/04/17 03:29:24;;;;;;;12.17;5.00;;;;;;;;;;5115760;28;20036;-60
2023/04/17 03:31:50;;;;;;;6.13;4.30;;;;;;;;;;5112405;28;20545;-61
2023/04/17 03:34:18;;;;;;;17.17;4.43;;;;;;;;;;5110352;28;20032;-60
2023/04/17 03:36:48;;;;;;;6.37;4.50;;;;;;;;;;5110242;28;20027;-61
2023/04/17 03:39:15;;;;;;;6.30;4.33;;;;;;;;;;5110301;28;20537;-60
2023/04/17 03:41:41;;;;;;;5.50;3.40;;;;;;;;;;5112464;28;20080;-60
2023/04/17 03:44:08;;;;;;;10.30;5.87;;;;;;;;;;5115316;28;20031;-60
2023/04/17 03:46:35;;;;;;;8.77;5.13;;;;;;;;;;5115124;28;20040;-61
2023/04/17 03:49:02;;;;;;;6.77;4.23;;;;;;;;;;5115181;28;20028;-60
2023/04/17 03:51:28;;;;;;;4.07;3.20;;;;;;;;;;5115182;28;20085;-60
2023/04/17 03:53:55;;;;;;;4.37;2.80;;;;;;;;;;5112515;28;20085;-61
2023/04/17 03:56:22;;;;;;;5.80;4.20;;;;;;;;;;5109894;28;20035;-61
2023/04/17 03:58:48;;;;;;;5.37;3.47;;;;;;;;;;5109979;28;20019;-60
2023/04/17 04:01:15;;;;;;;11.07;6.07;;;;;;;;;;5109691;28;20031;-60
2023/04/17 04:03:42;;;;;;;15.23;5.23;;;;;;;;;;5111517;28;20019;-60
2023/04/17 04:06:09;;;;;;;6.87;4.63;;;;;;;;;;5114922;28;20031;-61
2023/04/17 04:08:35;;;;;;;5.27;4.13;;;;;;;;;;5114624;28;20034;-60
2023/04/17 04:11:02;;;;;;;7.50;4.87;;;;;;;;;;5114797;28;20028;-61
2023/04/17 04:13:29;;;;;;;7.33;4.47;;;;;;;;;;5114858;28;20035;-60
2023/04/17 04:15:55;;;;;;;5.10;3.43;;;;;;;;;;5112766;28;20411;-62
2023/04/17 04:18:22;;;;;;;6.10;4.37;;;;;;;;;;5109173;28;20055;-61
2023/04/17 04:20:49;;;;;;;7.77;5.07;;;;;;;;;;5109653;28;20102;-60
2023/04/17 04:23:16;;;;;;;9.80;4.80;;;;;;;;;;5109510;28;20848;-60
2023/04/17 04:25:42;;;;;;;8.07;4.93;;;;;;;;;;5110357;28;20038;-60
2023/04/17 04:28:12;;;;;;;5.47;4.10;;;;;;;;;;5114398;28;20026;-60
2023/04/17 04:30:39;;;;;;;7.07;4.10;;;;;;;;;;5114249;28;20039;-60
2023/04/17 04:33:07;;;;;;;6.63;4.37;;;;;;;;;;5114379;28;20028;-60
2023/04/17 04:35:34;;;;;;;5.77;3.97;;;;;;;;;;5113930;28;20023;-61
2023/04/17 04:38:01;;;;;;;6.60;4.13;;;;;;;;;;5112955;28;20378;-60
2023/04/17 04:40:34;;;;;;;5.20;4.20;;;;;;;;;;5109248;28;20057;-61
2023/04/17 04:43:01;;;;;;;4.90;3.57;;;;;;;;;;5108905;28;20486;-60
2023/04/17 04:45:28;;;;;;;10.43;5.07;;;;;;;;;;5109116;28;20276;-60
2023/04/17 04:47:58;;;;;;;7.40;4.33;;;;;;;;;;5109616;28;20027;-60
2023/04/17 04:50:24;;;;;;;4.47;3.87;;;;;;;;;;5114023;28;20024;-60
2023/04/17 04:52:51;;;;;;;8.63;5.30;;;;;;;;;;5113473;28;20148;-60
2023/04/17 04:55:18;;;;;;;6.90;5.10;;;;;;;;;;5114053;28;20023;-60
2023/04/17 04:57:45;;;;;;;5.60;4.47;;;;;;;;;;5114113;28;20389;-60
2023/04/17 05:00:13;;;;;;;5.67;3.87;;;;;;;;;;5113029;28;20501;-60
2023/04/17 05:02:39;;;;;;;6.13;4.27;;;;;;;;;;5108630;28;20024;-60
2023/04/17 05:05:08;;;;;;;4.97;4.00;;;;;;;;;;5108755;28;20034;-60
2023/04/17 05:07:35;;;;;;;6.20;4.83;;;;;;;;;;5108670;28;20027;-61
2023/04/17 05:10:01;;;;;;;8.17;5.03;;;;;;;;;;5108356;28;20032;-61
2023/04/17 05:12:28;;;;;;;6.83;5.00;;;;;;;;;;5113777;28;20080;-60
2023/04/17 05:14:55;;;;;;;6.27;4.97;;;;;;;;;;5113097;28;20028;-60
2023/04/17 05:17:21;;;;;;;7.67;4.80;;;;;;;;;;5113375;28;20039;-60
2023/04/17 05:19:48;;;;;;;7.57;5.27;;;;;;;;;;5113546;28;20031;-60
2023/04/17 05:22:15;;;;;;;6.93;4.50;;;;;;;;;;5113247;28;20023;-60
2023/04/17 05:24:42;;;;;;;9.50;4.70;;;;;;;;;;5090075;28;20024;-60
2023/04/17 05:27:08;;;;;;;9.77;5.30;;;;;;;;;;5107812;28;20485;-61
2023/04/17 05:29:36;;;;;;;8.40;5.27;;;;;;;;;;5108264;28;20031;-60
2023/04/17 05:32:03;;;;;;;9.80;5.97;;;;;;;;;;5107948;28;20031;-60
2023/04/17 05:34:29;;;;;;;8.47;5.90;;;;;;;;;;5112723;28;20481;-60
2023/04/17 05:36:56;;;;;;;8.53;6.30;;;;;;;;;;5113248;28;20031;-60
2023/04/17 05:39:23;;;;;;;7.93;5.63;;;;;;;;;;5113274;28;20058;-60
2023/04/17 05:41:49;;;;;;;8.10;6.23;;;;;;;;;;5113305;28;20163;-60
2023/04/17 05:44:16;;;;;;;6.73;5.70;;;;;;;;;;5113101;28;20027;-60
2023/04/17 05:46:43;;;;;;;8.07;5.67;;;;;;;;;;5108279;28;20031;-60
2023/04/17 05:49:09;;;;;;;6.33;4.90;;;;;;;;;;5108006;28;20028;-60
2023/04/17 05:51:36;;;;;;;6.83;5.37;;;;;;;;;;5107914;28;20091;-60
2023/04/17 05:54:03;;;;;;;10.13;5.83;;;;;;;;;;5107770;28;20034;-60
2023/04/17 05:56:30;;;;;;;6.90;5.43;;;;;;;;;;5111644;28;20047;-60
2023/04/17 05:58:57;;;;;;;9.37;6.33;;;;;;;;;;5112866;28;20019;-60
2023/04/17 06:01:24;;;;;;;6.83;5.63;;;;;;;;;;5112902;28;20030;-60
2023/04/17 06:03:50;;;;;;;10.17;5.77;;;;;;;;;;5112220;28;20042;-60
2023/04/17 06:06:17;;;;;;;7.73;6.40;;;;;;;;;;5112955;28;20032;-60
2023/04/17 06:08:44;;;;;;;9.83;5.97;;;;;;;;;;5108780;28;20049;-60
2023/04/17 06:11:10;;;;;;;7.07;6.13;;;;;;;;;;5107792;28;20020;-60
2023/04/17 06:13:37;;;;;;;6.10;5.20;;;;;;;;;;5107940;28;20512;-60
2023/04/17 06:16:04;;;;;;;6.53;5.17;;;;;;;;;;5107634;28;20019;-60
2023/04/17 06:18:31;;;;;;;8.40;6.33;;;;;;;;;;5092345;28;20040;-60
2023/04/17 06:20:57;;;;;;;10.17;6.67;;;;;;;;;;5112169;28;20080;-60
2023/04/17 06:23:24;;;;;;;7.67;6.60;;;;;;;;;;5113050;28;20024;-60
2023/04/17 06:25:51;;;;;;;7.53;5.73;;;;;;;;;;5112295;28;20032;-60
2023/04/17 06:28:18;;;;;;;7.10;5.03;;;;;;;;;;5115523;28;20026;-60
2023/04/17 06:30:45;;;;;;;7.43;5.17;;;;;;;;;;5113496;28;20038;-60
2023/04/17 06:33:12;;;;;;;10.87;5.90;;;;;;;;;;5111792;28;20424;-60
2023/04/17 06:35:39;;;;;;;9.07;5.50;;;;;;;;;;5111808;28;20073;-60
2023/04/17 06:38:07;;;;;;;5.13;4.63;;;;;;;;;;5111511;28;20039;-60
2023/04/17 06:40:34;;;;;;;6.97;5.33;;;;;;;;;;5113753;28;20031;-60
2023/04/17 06:43:01;;;;;;;6.07;4.20;;;;;;;;;;5116254;28;20024;-60
2023/04/17 06:45:27;;;;;;;6.43;5.17;;;;;;;;;;5116412;28;20111;-60
2023/04/17 06:47:54;;;;;;;5.87;4.00;;;;;;;;;;5116605;28;20482;-60
2023/04/17 06:50:21;;;;;;;9.47;4.13;;;;;;;;;;5116438;28;20415;-60
2023/04/17 06:52:48;;;;;;;8.67;5.63;;;;;;;;;;5113697;28;20061;-60
2023/04/17 06:55:15;;;;;;;11.67;6.17;;;;;;;;;;5111102;28;20150;-60
2023/04/17 06:57:41;;;;;;;7.90;5.20;;;;;;;;;;5110844;28;20035;-60
2023/04/17 07:00:08;;;;;;;6.30;4.73;;;;;;;;;;5111205;28;20047;-60
2023/04/17 07:02:35;;;;;;;9.43;6.23;;;;;;;;;;5112799;28;20024;-60
2023/04/17 07:05:05;;;;;;;8.13;5.27;;;;;;;;;;5116263;28;20103;-60
2023/04/17 07:07:33;;;;;;;8.40;6.20;;;;;;;;;;5116054;28;20512;-60
2023/04/17 07:10:00;;;;;;;5.47;4.70;;;;;;;;;;5115828;28;20027;-60
2023/04/17 07:12:26;;;;;;;6.30;4.47;;;;;;;;;;5116042;28;20024;-60
2023/04/17 07:14:53;;;;;;;7.00;4.97;;;;;;;;;;5113612;28;20386;-60
2023/04/17 07:17:20;;;;;;;6.80;5.47;;;;;;;;;;5110810;28;20369;-60
2023/04/17 07:19:46;;;;;;;7.43;4.70;;;;;;;;;;5110889;28;20035;-60
2023/04/17 07:22:13;;;;;;;6.40;5.13;;;;;;;;;;5110847;28;20043;-60
2023/04/17 07:24:40;;;;;;;13.73;4.40;;;;;;;;;;5112026;28;20012;-60
2023/04/17 07:27:06;;;;;;;7.73;5.23;;;;;;;;;;5115727;28;20116;-60
2023/04/17 07:29:34;;;;;;;6.17;4.53;;;;;;;;;;5115659;28;20481;-60
2023/04/17 07:32:03;;;;;;;4.27;3.33;;;;;;;;;;5115292;28;20031;-60
2023/04/17 07:34:30;;;;;;;5.40;3.70;;;;;;;;;;5115255;28;20427;-60
2023/04/17 07:36:57;;;;;;;6.00;4.83;;;;;;;;;;5113860;28;20028;-61
2023/04/17 07:39:25;;;;;;;3.13;2.40;;;;;;;;;;5109804;28;20461;-60
2023/04/17 07:41:52;;;;;;;4.10;2.97;;;;;;;;;;5110338;28;20381;-60
2023/04/17 07:44:19;;;;;;;6.40;3.40;;;;;;;;;;5110215;28;20028;-60
2023/04/17 07:46:45;;;;;;;3.27;2.20;;;;;;;;;;5111017;28;20027;-60
2023/04/17 07:49:12;;;;;;;3.03;2.37;;;;;;;;;;5114791;28;20020;-60
2023/04/17 07:51:39;;;;;;;2.97;2.07;;;;;;;;;;5114936;28;20391;-60
2023/04/17 07:54:06;;;;;;;2.70;2.03;;;;;;;;;;5115058;28;20036;-60
2023/04/17 07:56:33;;;;;;;3.37;2.40;;;;;;;;;;5115232;28;20019;-60
2023/04/17 07:59:01;;;;;;;24.27;3.70;;;;;;;;;;5114127;28;20027;-60
2023/04/17 08:01:27;;;;;;;3.73;2.60;;;;;;;;;;5109617;28;20023;-61
2023/04/17 08:03:54;;;;;;;3.83;2.77;;;;;;;;;;5110008;28;20028;-60
2023/04/17 08:06:21;;;;;;;2.97;2.27;;;;;;;;;;5109347;28;20555;-62
2023/04/17 08:08:47;;;;;;;3.47;2.53;;;;;;;;;;5109883;28;20496;-60
2023/04/17 08:11:14;;;;;;;2.93;2.10;;;;;;;;;;5114967;28;20412;-61
2023/04/17 08:13:41;;;;;;;2.90;2.13;;;;;;;;;;5114766;28;20020;-60
2023/04/17 08:16:09;;;;;;;5.50;2.10;;;;;;;;;;5114827;28;20023;-60
2023/04/17 08:18:36;;;;;;;3.87;2.20;;;;;;;;;;5114535;28;20081;-60
2023/04/17 08:21:03;;;;;;;3.17;2.10;;;;;;;;;;5114130;28;20015;-60
2023/04/17 08:23:30;;;;;;;3.00;1.90;;;;;;;;;;5109260;28;20051;-60
2023/04/17 08:25:57;;;;;;;2.87;1.90;;;;;;;;;;5109325;28;20122;-60
2023/04/17 08:28:23;;;;;;;1.63;1.30;;;;;;;;;;5109186;28;20329;-61
2023/04/17 08:30:50;;;;;;;2.20;1.47;;;;;;;;;;5109315;28;20023;-60
2023/04/17 08:33:17;;;;;;;2.57;1.80;;;;;;;;;;5114174;28;20554;-60
2023/04/17 08:35:44;;;;;;;3.63;1.43;;;;;;;;;;5114469;28;20546;-60
2023/04/17 08:38:13;;;;;;;2.00;1.47;;;;;;;;;;5114252;28;20020;-60
2023/04/17 08:40:45;;;;;;;2.70;1.60;;;;;;;;;;5114127;28;20520;-60
2023/04/17 08:43:14;;;;;;;1.77;1.30;;;;;;;;;;5113966;28;20027;-60
2023/04/17 08:45:48;;;;;;;5.33;1.40;;;;;;;;;;5107503;28;20044;-60
2023/04/17 08:48:15;;;;;;;4.90;1.40;;;;;;;;;;5108893;28;20034;-60
2023/04/17 08:50:47;;;;;;;1.87;1.37;;;;;;;;;;5108445;28;20024;-60
2023/04/17 08:53:13;;;;;;;1.80;1.23;;;;;;;;;;5108666;28;20032;-61
2023/04/17 08:55:40;;;;;;;1.83;1.23;;;;;;;;;;5113823;28;20023;-60
2023/04/17 08:58:07;;;;;;;1.57;1.10;;;;;;;;;;5114153;28;20031;-60
2023/04/17 09:00:35;;;;;;;2.77;1.07;;;;;;;;;;5113791;28;20058;-60
2023/04/17 09:03:03;;;;;;;3.77;1.43;;;;;;;;;;5113942;28;20072;-60
2023/04/17 09:05:36;;;;;;;0.70;0.50;;;;;;;;;;5113602;28;20023;-60
2023/04/17 09:08:06;;;;;;;0.60;0.50;;;;;;;;;;5108290;28;20031;-60
2023/04/17 09:10:39;;;;;;;0.60;0.60;;;;;;;;;;5090180;28;20028;-60
2023/04/17 09:13:07;;;;;;;0.60;0.60;;;;;;;;;;5108549;28;20031;-60
2023/04/17 09:15:34;;;;;;;2.47;0.90;;;;;;;;;;5108445;28;20085;-60
2023/04/17 09:18:01;;;;;;;1.57;1.07;;;;;;;;;;5113330;28;20377;-60
2023/04/17 09:20:28;;;;;;;1.20;0.80;;;;;;;;;;5113329;28;20118;-60
2023/04/17 09:23:04;;;;;;;0.93;0.77;;;;;;;;;;5113358;28;20404;-61
2023/04/17 09:25:31;;;;;;;0.73;0.60;;;;;;;;;;5113541;28;20405;-60
2023/04/17 09:28:12;;;;;;;0.50;0.50;;;;;;;;;;5113104;28;20024;-60
2023/04/17 09:30:39;;;;;;;1.40;0.93;;;;;;;;;;5108147;28;20161;-60
2023/04/17 09:33:07;;;;;;;0.80;0.60;;;;;;;;;;5108006;28;20080;-60
2023/04/17 09:35:36;;;;;;;0.93;0.77;;;;;;;;;;5108247;28;20012;-60
2023/04/17 09:38:03;;;;;;;0.63;0.43;;;;;;;;;;5108139;28;20062;-60
2023/04/17 09:40:40;;;;;;;0.53;0.53;;;;;;;;;;5113274;28;20046;-60
2023/04/17 09:43:08;;;;;;;0.50;0.30;;;;;;;;;;5113034;28;20374;-60
2023/04/17 09:45:38;;;;;;;1.37;0.90;;;;;;;;;;5112899;28;20069;-60
2023/04/17 09:48:06;;;;;;;2.20;1.17;;;;;;;;;;5112608;28;20027;-60
2023/04/17 09:50:33;;;;;;;1.07;0.87;;;;;;;;;;5112022;28;20015;-61
2023/04/17 09:53:01;;;;;;;1.43;0.93;;;;;;;;;;5107977;28;20023;-60
2023/04/17 09:55:30;;;;;;;1.63;1.00;;;;;;;;;;5108018;28;20088;-60
2023/04/17 09:57:58;;;;;;;1.00;0.90;;;;;;;;;;5107894;28;20027;-60
2023/04/17 10:00:26;;;;;;;0.60;0.50;;;;;;;;;;5108263;28;20027;-60
2023/04/17 10:02:53;;;;;;;2.27;1.47;;;;;;;;;;5112308;28;20031;-60
2023/04/17 10:05:20;;;;;;;19.13;1.53;;;;;;;;;;5112773;28;20028;-60
2023/04/17 10:07:47;;;;;;;1.83;1.33;;;;;;;;;;5112804;28;20369;-60
2023/04/17 10:10:35;;;;;;;2.07;1.40;;;;;;;;;;5112843;28;20020;-60
2023/04/17 10:13:06;;;;;;;1.13;0.90;;;;;;;;;;5111504;28;20203;-60
2023/04/17 10:15:34;;;;;;;5.97;1.97;;;;;;;;;;5107382;28;20057;-60
2023/04/17 10:18:27;;;;;;;0.77;0.67;;;;;;;;;;5107656;28;20128;-60
2023/04/17 10:20:54;;;;;;;1.30;1.03;;;;;;;;;;5103324;28;20097;-60
2023/04/17 10:23:33;;;;;;;1.10;0.83;;;;;;;;;;5109501;28;20494;-60
2023/04/17 10:26:31;;;;;;;1.80;1.27;;;;;;;;;;5112361;28;20063;-60
2023/04/17 10:28:58;;;;;;;1.43;1.17;;;;;;;;;;5105969;28;20071;-60
2023/04/17 10:31:45;;;;;;;2.50;1.40;;;;;;;;;;5094164;28;20032;-61
2023/04/17 10:34:31;;;;;;;1.83;1.20;;;;;;;;;;5112465;28;20028;-60
2023/04/17 10:37:00;;;;;;;2.33;1.33;;;;;;;;;;5107628;28;20020;-60
2023/04/17 10:39:26;;;;;;;4.50;1.17;;;;;;;;;;5107057;28;20107;-61
2023/04/17 10:42:03;;;;;;;1.57;1.10;;;;;;;;;;5107393;28;20032;-60
2023/04/17 10:44:37;;;;;;;2.20;1.07;;;;;;;;;;5107550;28;20063;-60
2023/04/17 10:47:13;;;;;;;3.95;1.17;;;;;;;;;;5112064;28;20036;-60
2023/04/17 10:49:57;;;;;;;2.07;1.10;;;;;;;;;;5112264;28;20031;-60
2023/04/17 10:52:40;;;;;;;4.20;1.85;;;;;;;;;;5112289;28;20023;-60
2023/04/17 10:55:07;;;;;;;1.10;0.90;;;;;;;;;;5112205;28;20032;-60
2023/04/17 10:57:52;;;;;;;1.50;1.10;;;;;;;;;;5110941;28;20461;-60
2023/04/17 11:00:19;;;;;;;1.67;1.25;;;;;;;;;;5107182;28;20477;-60
2023/04/17 11:02:49;;;;;;;1.00;0.87;;;;;;;;;;5107252;28;20028;-60
2023/04/17 11:05:17;;;;;;;2.23;1.63;;;;;;;;;;5107067;28;20058;-60
2023/04/17 11:07:49;;;;;;;1.87;1.40;;;;;;;;;;5108779;28;20098;-60
2023/04/17 11:10:16;;;;;;;1.67;1.37;;;;;;;;;;5111986;28;20046;-60
2023/04/17 11:12:45;;;;;;;1.40;1.10;;;;;;;;;;5112163;28;20096;-60
2023/04/17 11:15:12;;;;;;;2.80;1.83;;;;;;;;;;5116028;28;20023;-60
2023/04/17 11:17:41;;;;;;;1.87;1.40;;;;;;;;;;5115774;28;20023;-60
2023/04/17 11:20:09;;;;;;;1.40;1.00;;;;;;;;;;5113551;28;20073;-60
2023/04/17 11:22:36;;;;;;;2.53;1.57;;;;;;;;;;5092306;28;20527;-60
2023/04/17 11:25:03;;;;;;;1.43;1.00;;;;;;;;;;5110481;28;20027;-60
2023/04/17 11:27:30;;;;;;;1.87;1.30;;;;;;;;;;5110192;27;20111;-60
2023/04/17 11:29:56;;;;;;;1.73;1.40;;;;;;;;;;5111748;28;20016;-60
2023/04/17 11:32:23;;;;;;;1.90;1.30;;;;;;;;;;5115740;28;20031;-59
2023/04/17 11:34:50;;;;;;;2.30;1.50;;;;;;;;;;5115516;28;20024;-59
2023/04/17 11:37:17;;;;;;;1.47;1.00;;;;;;;;;;5115314;28;20465;-60
2023/04/17 11:39:44;;;;;;;4.03;1.43;;;;;;;;;;5115535;28;20020;-60
2023/04/17 11:42:10;;;;;;;1.50;1.10;;;;;;;;;;5113873;28;20023;-60
2023/04/17 11:44:43;;;;;;;2.40;1.17;;;;;;;;;;5109854;28;20439;-60
2023/04/17 11:47:10;;;;;;;2.03;1.47;;;;;;;;;;5110077;28;20061;-60
2023/04/17 11:49:39;;;;;;;1.60;1.00;;;;;;;;;;5110225;28;20081;-61
2023/04/17 11:52:06;;;;;;;0.83;0.80;;;;;;;;;;5110967;28;20493;-60
2023/04/17 11:54:38;;;;;;;2.00;1.07;;;;;;;;;;5115239;28;20023;-60
2023/04/17 11:57:06;;;;;;;1.20;0.90;;;;;;;;;;5115043;28;20085;-60
2023/04/17 11:59:37;;;;;;;1.40;1.17;;;;;;;;;;5114515;28;20103;-60
2023/04/17 12:02:05;;;;;;;1.73;1.07;;;;;;;;;;5115101;28;20097;-60
2023/04/17 12:04:33;;;;;;;1.20;1.00;;;;;;;;;;5113583;28;20369;-59
2023/04/17 12:07:00;;;;;;;8.50;1.33;;;;;;;;;;5091823;28;20490;-59
2023/04/17 12:09:30;;;;;;;1.67;0.93;;;;;;;;;;5109791;28;20103;-59
2023/04/17 12:12:04;;;;;;;3.30;1.20;;;;;;;;;;5109619;28;20070;-60
2023/04/17 12:14:31;;;;;;;0.75;0.65;;;;;;;;;;5110889;28;20031;-59
2023/04/17 12:16:58;;;;;;;2.50;1.50;;;;;;;;;;5114779;28;20378;-59
2023/04/17 12:19:26;;;;;;;0.97;0.77;;;;;;;;;;5114927;28;20039;-59
2023/04/17 12:21:53;;;;;;;1.53;1.00;;;;;;;;;;5114660;28;20019;-59
2023/04/17 12:24:21;;;;;;;0.50;0.47;;;;;;;;;;5114391;28;20603;-61
2023/04/17 12:26:51;;;;;;;0.73;0.70;;;;;;;;;;5112804;28;20116;-60
2023/04/17 12:29:17;;;;;;;0.30;0.30;;;;;;;;;;5108701;28;20030;-60
2023/04/17 12:31:45;;;;;;;1.47;1.10;;;;;;;;;;5109499;28;20028;-60
2023/04/17 12:34:11;;;;;;;1.77;1.27;;;;;;;;;;5108914;28;20016;-60
2023/04/17 12:36:38;;;;;;;1.17;0.90;;;;;;;;;;5109967;28;20470;-61
2023/04/17 12:39:05;;;;;;;1.27;0.53;;;;;;;;;;5114154;28;20023;-60
2023/04/17 12:41:32;;;;;;;0.40;0.40;;;;;;;;;;5114071;28;20022;-60
2023/04/17 12:44:00;;;;;;;0.53;0.50;;;;;;;;;;5114003;28;20462;-60
2023/04/17 12:46:27;;;;;;;1.87;1.63;;;;;;;;;;5113356;28;20119;-60
2023/04/17 12:48:57;;;;;;;0.80;0.50;;;;;;;;;;5112677;28;20042;-60
2023/04/17 12:51:26;;;;;;;0.40;0.37;;;;;;;;;;5108700;28;20063;-60
2023/04/17 12:53:54;;;;;;;3.70;1.00;;;;;;;;;;5108661;28;20028;-60
2023/04/17 12:56:20;;;;;;;3.70;0.80;;;;;;;;;;5108667;28;20024;-59
2023/04/17 12:58:47;;;;;;;0.70;0.30;;;;;;;;;;5109163;28;20098;-59
2023/04/17 13:01:14;;;;;;;0.30;0.23;;;;;;;;;;5113228;28;20080;-61
2023/04/17 13:03:41;;;;;;;0.30;0.30;;;;;;;;;;5113564;28;20482;-61
2023/04/17 13:06:07;;;;;;;0.50;0.40;;;;;;;;;;5113505;28;20039;-59
2023/04/17 13:08:34;;;;;;;2.13;0.60;;;;;;;;;;5113747;28;20080;-59
2023/04/17 13:11:02;;;;;;;0.53;0.40;;;;;;;;;;5112656;28;20027;-59
2023/04/17 13:13:29;;;;;;;0.30;0.30;;;;;;;;;;5108381;28;20059;-61
2023/04/17 13:15:56;;;;;;;8.07;1.00;;;;;;;;;;5108546;28;20026;-62
2023/04/17 13:18:22;;;;;;;1.00;0.67;;;;;;;;;;5107679;28;20149;-59
2023/04/17 13:20:49;;;;;;;0.60;0.60;;;;;;;;;;5108266;28;20389;-60
2023/04/17 13:23:16;;;;;;;1.07;0.80;;;;;;;;;;5113049;28;20043;-60
2023/04/17 13:25:42;;;;;;;2.10;0.60;;;;;;;;;;5113457;28;20169;-60
2023/04/17 13:28:09;;;;;;;2.53;0.90;;;;;;;;;;5113225;28;20027;-61
2023/04/17 13:30:36;;;;;;;2.10;0.77;;;;;;;;;;5113318;28;20027;-60
2023/04/17 13:33:03;;;;;;;1.40;0.83;;;;;;;;;;5112949;28;20100;-60
2023/04/17 13:35:29;;;;;;;0.53;0.40;;;;;;;;;;5107443;28;20027;-60
2023/04/17 13:37:59;;;;;;;1.77;0.73;;;;;;;;;;5107912;28;20115;-60
2023/04/17 13:40:26;;;;;;;0.60;0.50;;;;;;;;;;5108021;28;20027;-60
2023/04/17 13:42:53;;;;;;;0.43;0.37;;;;;;;;;;5107862;28;20019;-60
2023/04/17 13:45:20;;;;;;;0.57;0.50;;;;;;;;;;5112514;28;20030;-60
2023/04/17 13:47:46;;;;;;;0.73;0.60;;;;;;;;;;5112814;28;20020;-60
2023/04/17 13:50:13;;;;;;;0.67;0.50;;;;;;;;;;5112980;28;20046;-61
2023/04/17 13:52:40;;;;;;;1.17;0.50;;;;;;;;;;5112378;28;20101;-60
2023/04/17 13:55:10;;;;;;;0.93;0.70;;;;;;;;;;5113105;28;20034;-60
2023/04/17 13:57:39;;;;;;;0.30;0.23;;;;;;;;;;5107715;28;20473;-60
2023/04/17 14:00:06;;;;;;;0.83;0.73;;;;;;;;;;5107723;28;20390;-60
2023/04/17 14:02:33;;;;;;;2.67;1.10;;;;;;;;;;5107939;28;20103;-60
2023/04/17 14:05:00;;;;;;;1.20;0.73;;;;;;;;;;5107553;28;20024;-60
2023/04/17 14:07:26;;;;;;;2.60;0.90;;;;;;;;;;5112111;28;20043;-60
2023/04/17 14:09:53;;;;;;;1.70;0.53;;;;;;;;;;5112235;28;20478;-60
2023/04/17 14:12:20;;;;;;;1.07;0.90;;;;;;;;;;5112888;28;20141;-60
2023/04/17 14:14:47;;;;;;;5.33;0.60;;;;;;;;;;5112569;28;20024;-60
2023/04/17 14:17:13;;;;;;;1.60;1.17;;;;;;;;;;5113075;28;20020;-60
2023/04/17 14:19:40;;;;;;;1.20;1.00;;;;;;;;;;5107669;28;20088;-61
2023/04/17 14:22:07;;;;;;;9.37;0.83;;;;;;;;;;5107538;28;20023;-60
2023/04/17 14:24:34;;;;;;;2.83;1.20;;;;;;;;;;5107617;28;20027;-60
2023/04/17 14:27:00;;;;;;;1.57;0.83;;;;;;;;;;5106593;28;20335;-60
2023/04/17 14:29:27;;;;;;;2.03;0.87;;;;;;;;;;5111591;28;20025;-61
2023/04/17 14:31:57;;;;;;;2.00;0.90;;;;;;;;;;5094168;28;20059;-60
2023/04/17 14:34:24;;;;;;;0.70;0.60;;;;;;;;;;5112731;28;20019;-60
2023/04/17 14:36:50;;;;;;;1.00;0.73;;;;;;;;;;5112352;28;20481;-60
2023/04/17 14:39:18;;;;;;;0.60;0.50;;;;;;;;;;5112374;28;20020;-60
2023/04/17 14:41:45;;;;;;;0.67;0.47;;;;;;;;;;5107707;28;20031;-61
2023/04/17 14:44:12;;;;;;;0.73;0.53;;;;;;;;;;5107414;28;20034;-60
2023/04/17 14:46:38;;;;;;;0.93;0.77;;;;;;;;;;5107286;28;20054;-60